sensor_id;sensor_type;location;lat;lon;timestamp;P1;P2;P0
20157;PMS5003;10239;56.820;24.416;2023-09-07T00:02:13;0.40;0.40;0.00
20157;PMS5003;10239;56.820;24.416;2023-09-07T00:04:41;0.00;0.00;0.00
20157;PMS5003;10239;56.820;24.416;2023-09-07T00:07:10;0.00;0.00;0.00
20157;PMS5003;10239;56.820;24.416;2023-09-07T00:09:38;0.00;0.00;0.00
20157;PMS5003;10239;56.820;24.416;2023-09-07T00:12:05;0.00;0.00;0.00
20157;PMS5003;10239;56.820;24.416;2023-09-07T00:14:33;1.00;1.00;0.00
20157;PMS5003;10239;56.820;24.416;2023-09-07T00:17:01;0.00;0.00;0.00
20157;PMS5003;10239;56.820;24.416;2023-09-07T00:19:29;0.00;0.00;0.00
20157;PMS5003;10239;56.820;24.416;2023-09-07T00:21:59;0.00;0.00;0.00
20157;PMS5003;10239;56.820;24.416;2023-09-07T00:24:26;0.00;0.00;0.00
20157;PMS5003;10239;56.820;24.416;2023-09-07T00:26:54;0.20;0.20;0.00
20157;PMS5003;10239;56.820;24.416;2023-09-07T00:29:21;0.00;0.00;0.00
20157;PMS5003;10239;56.820;24.416;2023-09-07T00:31:49;0.00;0.00;0.00
20157;PMS5003;10239;56.820;24.416;2023-09-07T00:34:17;2.00;0.40;0.00
20157;PMS5003;10239;56.820;24.416;2023-09-07T00:36:44;0.00;0.00;0.00
20157;PMS5003;10239;56.820;24.416;2023-09-07T00:39:12;0.00;0.00;0.00
20157;PMS5003;10239;56.820;24.416;2023-09-07T00:41:40;2.00;0.20;0.00
20157;PMS5003;10239;56.820;24.416;2023-09-07T00:44:07;0.00;0.00;0.00
20157;PMS5003;10239;56.820;24.416;2023-09-07T00:46:35;0.60;0.60;0.00
20157;PMS5003;10239;56.820;24.416;2023-09-07T00:49:03;0.00;0.00;0.00
20157;PMS5003;10239;56.820;24.416;2023-09-07T00:51:31;0.00;0.00;0.00
20157;PMS5003;10239;56.820;24.416;2023-09-07T00:53:59;0.40;0.40;0.00
20157;PMS5003;10239;56.820;24.416;2023-09-07T00:56:27;2.00;2.00;0.80
20157;PMS5003;10239;56.820;24.416;2023-09-07T00:58:55;0.20;0.20;0.00
20157;PMS5003;10239;56.820;24.416;2023-09-07T01:01:26;0.00;0.00;0.00
20157;PMS5003;10239;56.820;24.416;2023-09-07T01:03:54;0.00;0.00;0.00
20157;PMS5003;10239;56.820;24.416;2023-09-07T01:06:30;0.20;0.20;0.00
20157;PMS5003;10239;56.820;24.416;2023-09-07T01:09:06;0.00;0.00;0.00
20157;PMS5003;10239;56.820;24.416;2023-09-07T01:11:40;0.00;0.00;0.00
20157;PMS5003;10239;56.820;24.416;2023-09-07T01:14:08;0.00;0.00;0.00
20157;PMS5003;10239;56.820;24.416;2023-09-07T01:16:35;0.00;0.00;0.00
20157;PMS5003;10239;56.820;24.416;2023-09-07T01:19:06;0.00;0.00;0.00
20157;PMS5003;10239;56.820;24.416;2023-09-07T01:21:34;0.00;0.00;0.00
20157;PMS5003;10239;56.820;24.416;2023-09-07T01:24:04;1.00;1.00;0.00
20157;PMS5003;10239;56.820;24.416;2023-09-07T01:26:35;1.00;0.00;0.00
20157;PMS5003;10239;56.820;24.416;2023-09-07T01:29:07;1.40;1.40;0.00
20157;PMS5003;10239;56.820;24.416;2023-09-07T01:31:36;4.00;1.00;0.00
20157;PMS5003;10239;56.820;24.416;2023-09-07T01:34:05;0.00;0.00;0.00
20157;PMS5003;10239;56.820;24.416;2023-09-07T01:36:33;0.00;0.00;0.00
20157;PMS5003;10239;56.820;24.416;2023-09-07T01:39:04;0.60;0.60;0.00
20157;PMS5003;10239;56.820;24.416;2023-09-07T01:41:33;0.00;0.00;0.00
20157;PMS5003;10239;56.820;24.416;2023-09-07T01:44:01;0.40;0.00;0.00
20157;PMS5003;10239;56.820;24.416;2023-09-07T01:46:29;0.00;0.00;0.00
20157;PMS5003;10239;56.820;24.416;2023-09-07T01:48:56;1.40;0.00;0.00
20157;PMS5003;10239;56.820;24.416;2023-09-07T01:51:24;1.00;1.00;0.00
20157;PMS5003;10239;56.820;24.416;2023-09-07T01:53:54;0.00;0.00;0.00
20157;PMS5003;10239;56.820;24.416;2023-09-07T01:56:22;0.00;0.00;0.00
20157;PMS5003;10239;56.820;24.416;2023-09-07T01:58:50;1.00;1.00;0.00
20157;PMS5003;10239;56.820;24.416;2023-09-07T02:03:52;0.00;0.00;0.00
20157;PMS5003;10239;56.820;24.416;2023-09-07T02:06:20;0.00;0.00;0.00
20157;PMS5003;10239;56.820;24.416;2023-09-07T02:08:48;4.00;0.00;0.00
20157;PMS5003;10239;56.820;24.416;2023-09-07T02:11:16;0.00;0.00;0.00
20157;PMS5003;10239;56.820;24.416;2023-09-07T02:13:47;0.00;0.00;0.00
20157;PMS5003;10239;56.820;24.416;2023-09-07T02:16:15;1.00;1.00;0.00
20157;PMS5003;10239;56.820;24.416;2023-09-07T02:18:44;0.00;0.00;0.00
20157;PMS5003;10239;56.820;24.416;2023-09-07T02:21:15;0.00;0.00;0.00
20157;PMS5003;10239;56.820;24.416;2023-09-07T02:23:43;0.00;0.00;0.00
20157;PMS5003;10239;56.820;24.416;2023-09-07T02:26:10;0.80;0.80;0.00
20157;PMS5003;10239;56.820;24.416;2023-09-07T02:28:38;0.80;0.00;0.00
20157;PMS5003;10239;56.820;24.416;2023-09-07T02:31:06;0.80;0.00;0.00
20157;PMS5003;10239;56.820;24.416;2023-09-07T02:33:35;0.00;0.00;0.00
20157;PMS5003;10239;56.820;24.416;2023-09-07T02:36:03;0.00;0.00;0.00
20157;PMS5003;10239;56.820;24.416;2023-09-07T02:38:31;0.00;0.00;0.00
20157;PMS5003;10239;56.820;24.416;2023-09-07T02:41:00;0.40;0.00;0.00
20157;PMS5003;10239;56.820;24.416;2023-09-07T02:43:29;0.00;0.00;0.00
20157;PMS5003;10239;56.820;24.416;2023-09-07T02:45:58;0.00;0.00;0.00
20157;PMS5003;10239;56.820;24.416;2023-09-07T02:48:26;1.00;1.00;0.00
20157;PMS5003;10239;56.820;24.416;2023-09-07T02:50:53;0.20;0.20;0.00
20157;PMS5003;10239;56.820;24.416;2023-09-07T02:53:22;1.00;0.00;0.00
20157;PMS5003;10239;56.820;24.416;2023-09-07T02:55:50;1.00;1.00;0.00
20157;PMS5003;10239;56.820;24.416;2023-09-07T02:58:18;0.00;0.00;0.00
20157;PMS5003;10239;56.820;24.416;2023-09-07T03:00:46;1.00;0.00;0.00
20157;PMS5003;10239;56.820;24.416;2023-09-07T03:03:18;0.00;0.00;0.00
20157;PMS5003;10239;56.820;24.416;2023-09-07T03:05:46;0.00;0.00;0.00
20157;PMS5003;10239;56.820;24.416;2023-09-07T03:08:14;0.00;0.00;0.00
20157;PMS5003;10239;56.820;24.416;2023-09-07T03:10:42;0.80;0.80;0.00
20157;PMS5003;10239;56.820;24.416;2023-09-07T03:13:11;0.40;0.00;0.00
20157;PMS5003;10239;56.820;24.416;2023-09-07T03:15:39;0.00;0.00;0.00
20157;PMS5003;10239;56.820;24.416;2023-09-07T03:18:10;0.00;0.00;0.00
20157;PMS5003;10239;56.820;24.416;2023-09-07T03:20:40;0.00;0.00;0.00
20157;PMS5003;10239;56.820;24.416;2023-09-07T03:23:09;0.00;0.00;0.00
20157;PMS5003;10239;56.820;24.416;2023-09-07T03:25:36;0.00;0.00;0.00
20157;PMS5003;10239;56.820;24.416;2023-09-07T03:28:04;0.00;0.00;0.00
20157;PMS5003;10239;56.820;24.416;2023-09-07T03:30:34;0.00;0.00;0.00
20157;PMS5003;10239;56.820;24.416;2023-09-07T03:33:04;3.40;0.00;0.00
20157;PMS5003;10239;56.820;24.416;2023-09-07T03:35:32;0.00;0.00;0.00
20157;PMS5003;10239;56.820;24.416;2023-09-07T03:38:01;1.00;0.00;0.00
20157;PMS5003;10239;56.820;24.416;2023-09-07T03:40:28;1.20;1.20;0.00
20157;PMS5003;10239;56.820;24.416;2023-09-07T03:42:56;0.40;0.40;0.00
20157;PMS5003;10239;56.820;24.416;2023-09-07T03:45:25;0.00;0.00;0.00
20157;PMS5003;10239;56.820;24.416;2023-09-07T03:47:53;0.00;0.00;0.00
20157;PMS5003;10239;56.820;24.416;2023-09-07T03:50:21;2.20;0.00;0.00
20157;PMS5003;10239;56.820;24.416;2023-09-07T03:52:48;0.60;0.00;0.00
20157;PMS5003;10239;56.820;24.416;2023-09-07T03:55:16;0.00;0.00;0.00
20157;PMS5003;10239;56.820;24.416;2023-09-07T03:57:46;0.80;0.80;0.00
20157;PMS5003;10239;56.820;24.416;2023-09-07T04:00:14;0.00;0.00;0.00
20157;PMS5003;10239;56.820;24.416;2023-09-07T04:02:46;0.00;0.00;0.00
20157;PMS5003;10239;56.820;24.416;2023-09-07T04:05:14;1.40;0.00;0.00
20157;PMS5003;10239;56.820;24.416;2023-09-07T04:07:41;0.80;0.80;0.00
20157;PMS5003;10239;56.820;24.416;2023-09-07T04:10:08;0.00;0.00;0.00
20157;PMS5003;10239;56.820;24.416;2023-09-07T04:12:36;0.20;0.20;0.00
20157;PMS5003;10239;56.820;24.416;2023-09-07T04:15:04;0.00;0.00;0.00
20157;PMS5003;10239;56.820;24.416;2023-09-07T04:17:32;0.00;0.00;0.00
20157;PMS5003;10239;56.820;24.416;2023-09-07T04:20:08;0.00;0.00;0.00
20157;PMS5003;10239;56.820;24.416;2023-09-07T04:22:38;0.00;0.00;0.00
20157;PMS5003;10239;56.820;24.416;2023-09-07T04:25:07;0.00;0.00;0.00
20157;PMS5003;10239;56.820;24.416;2023-09-07T04:27:40;0.00;0.00;0.00
20157;PMS5003;10239;56.820;24.416;2023-09-07T04:30:09;1.00;1.00;0.00
20157;PMS5003;10239;56.820;24.416;2023-09-07T04:32:37;0.60;0.60;0.00
20157;PMS5003;10239;56.820;24.416;2023-09-07T04:35:06;0.00;0.00;0.00
20157;PMS5003;10239;56.820;24.416;2023-09-07T04:37:35;0.00;0.00;0.00
20157;PMS5003;10239;56.820;24.416;2023-09-07T04:40:05;0.20;0.20;0.00
20157;PMS5003;10239;56.820;24.416;2023-09-07T04:42:33;0.00;0.00;0.00
20157;PMS5003;10239;56.820;24.416;2023-09-07T04:45:03;2.00;0.00;0.00
20157;PMS5003;10239;56.820;24.416;2023-09-07T04:47:32;0.00;0.00;0.00
20157;PMS5003;10239;56.820;24.416;2023-09-07T04:50:01;0.00;0.00;0.00
20157;PMS5003;10239;56.820;24.416;2023-09-07T04:52:29;0.00;0.00;0.00
20157;PMS5003;10239;56.820;24.416;2023-09-07T04:54:56;0.60;0.60;0.00
20157;PMS5003;10239;56.820;24.416;2023-09-07T04:57:30;1.00;1.00;0.20
20157;PMS5003;10239;56.820;24.416;2023-09-07T04:59:58;0.80;0.00;0.00
20157;PMS5003;10239;56.820;24.416;2023-09-07T05:02:27;1.75;1.75;0.00
20157;PMS5003;10239;56.820;24.416;2023-09-07T05:04:55;0.75;0.75;0.00
20157;PMS5003;10239;56.820;24.416;2023-09-07T05:07:23;0.00;0.00;0.00
20157;PMS5003;10239;56.820;24.416;2023-09-07T05:09:53;0.00;0.00;0.00
20157;PMS5003;10239;56.820;24.416;2023-09-07T05:12:20;0.25;0.25;0.00
20157;PMS5003;10239;56.820;24.416;2023-09-07T05:14:49;0.00;0.00;0.00
20157;PMS5003;10239;56.820;24.416;2023-09-07T05:17:17;6.00;6.00;1.75
20157;PMS5003;10239;56.820;24.416;2023-09-07T05:19:47;13.25;11.75;6.25
20157;PMS5003;10239;56.820;24.416;2023-09-07T05:22:16;13.50;12.75;7.75
20157;PMS5003;10239;56.820;24.416;2023-09-07T05:24:46;15.25;11.25;6.00
20157;PMS5003;10239;56.820;24.416;2023-09-07T05:27:14;9.25;9.00;5.50
20157;PMS5003;10239;56.820;24.416;2023-09-07T05:29:42;2.00;2.00;1.00
20157;PMS5003;10239;56.820;24.416;2023-09-07T05:32:12;3.00;3.00;1.20
20157;PMS5003;10239;56.820;24.416;2023-09-07T05:34:41;2.80;1.00;0.00
20157;PMS5003;10239;56.820;24.416;2023-09-07T05:37:09;1.40;1.00;0.00
20157;PMS5003;10239;56.820;24.416;2023-09-07T05:39:38;1.00;1.00;0.20
20157;PMS5003;10239;56.820;24.416;2023-09-07T05:42:06;0.20;0.20;0.00
20157;PMS5003;10239;56.820;24.416;2023-09-07T05:44:34;1.80;1.00;0.20
20157;PMS5003;10239;56.820;24.416;2023-09-07T05:47:02;2.00;0.00;0.00
20157;PMS5003;10239;56.820;24.416;2023-09-07T05:49:30;26.25;19.00;9.00
20157;PMS5003;10239;56.820;24.416;2023-09-07T05:51:58;57.50;41.75;22.50
20157;PMS5003;10239;56.820;24.416;2023-09-07T05:54:26;41.50;32.00;13.50
20157;PMS5003;10239;56.820;24.416;2023-09-07T05:56:54;19.80;16.80;7.40
20157;PMS5003;10239;56.820;24.416;2023-09-07T05:59:24;4.40;4.40;2.00
20157;PMS5003;10239;56.820;24.416;2023-09-07T06:01:53;3.00;3.00;0.00
20157;PMS5003;10239;56.820;24.416;2023-09-07T06:04:20;4.20;2.40;0.20
20157;PMS5003;10239;56.820;24.416;2023-09-07T06:06:49;0.40;0.40;0.00
20157;PMS5003;10239;56.820;24.416;2023-09-07T06:09:17;3.20;1.00;0.80
20157;PMS5003;10239;56.820;24.416;2023-09-07T06:11:46;2.00;2.00;0.00
20157;PMS5003;10239;56.820;24.416;2023-09-07T06:14:15;0.80;0.80;0.00
20157;PMS5003;10239;56.820;24.416;2023-09-07T06:16:43;2.00;0.20;0.00
20157;PMS5003;10239;56.820;24.416;2023-09-07T06:19:11;1.00;1.00;0.00
20157;PMS5003;10239;56.820;24.416;2023-09-07T06:21:39;1.00;1.00;1.00
20157;PMS5003;10239;56.820;24.416;2023-09-07T06:24:08;0.80;0.80;0.00
20157;PMS5003;10239;56.820;24.416;2023-09-07T06:26:36;1.40;1.00;0.00
20157;PMS5003;10239;56.820;24.416;2023-09-07T06:29:04;0.60;0.60;0.00
20157;PMS5003;10239;56.820;24.416;2023-09-07T06:31:32;4.00;2.00;0.00
20157;PMS5003;10239;56.820;24.416;2023-09-07T06:34:01;0.00;0.00;0.00
20157;PMS5003;10239;56.820;24.416;2023-09-07T06:36:30;1.60;0.00;0.00
20157;PMS5003;10239;56.820;24.416;2023-09-07T06:39:14;2.40;1.00;0.00
20157;PMS5003;10239;56.820;24.416;2023-09-07T06:41:43;1.80;1.00;0.00
20157;PMS5003;10239;56.820;24.416;2023-09-07T06:44:13;1.00;1.00;0.00
20157;PMS5003;10239;56.820;24.416;2023-09-07T06:46:43;1.40;1.00;0.20
20157;PMS5003;10239;56.820;24.416;2023-09-07T06:49:11;1.20;1.00;0.00
20157;PMS5003;10239;56.820;24.416;2023-09-07T06:51:39;0.00;0.00;0.00
20157;PMS5003;10239;56.820;24.416;2023-09-07T06:54:07;0.40;0.40;0.00
20157;PMS5003;10239;56.820;24.416;2023-09-07T06:56:36;0.20;0.20;0.00
20157;PMS5003;10239;56.820;24.416;2023-09-07T06:59:04;0.00;0.00;0.00
20157;PMS5003;10239;56.820;24.416;2023-09-07T07:01:33;0.60;0.60;0.00
20157;PMS5003;10239;56.820;24.416;2023-09-07T07:04:04;0.00;0.00;0.00
20157;PMS5003;10239;56.820;24.416;2023-09-07T07:06:32;0.00;0.00;0.00
20157;PMS5003;10239;56.820;24.416;2023-09-07T07:09:00;0.00;0.00;0.00
20157;PMS5003;10239;56.820;24.416;2023-09-07T07:11:30;2.20;0.00;0.00
20157;PMS5003;10239;56.820;24.416;2023-09-07T07:13:58;1.00;0.00;0.00
20157;PMS5003;10239;56.820;24.416;2023-09-07T07:16:27;0.00;0.00;0.00
20157;PMS5003;10239;56.820;24.416;2023-09-07T07:18:55;0.00;0.00;0.00
20157;PMS5003;10239;56.820;24.416;2023-09-07T12:55:19;4.00;4.00;2.00
20157;PMS5003;10239;56.820;24.416;2023-09-07T12:57:50;4.00;4.00;2.00
20157;PMS5003;10239;56.820;24.416;2023-09-07T13:00:18;4.80;4.80;2.80
20157;PMS5003;10239;56.820;24.416;2023-09-07T13:02:46;6.80;4.80;2.20
20157;PMS5003;10239;56.820;24.416;2023-09-07T13:05:15;5.40;5.40;2.60
20157;PMS5003;10239;56.820;24.416;2023-09-07T13:07:43;3.20;3.20;0.80
20157;PMS5003;10239;56.820;24.416;2023-09-07T13:10:12;3.80;2.80;1.20
20157;PMS5003;10239;56.820;24.416;2023-09-07T13:12:42;2.60;1.60;1.00
20157;PMS5003;10239;56.820;24.416;2023-09-07T13:15:10;2.40;2.00;0.20
20157;PMS5003;10239;56.820;24.416;2023-09-07T13:17:38;1.00;1.00;0.00
20157;PMS5003;10239;56.820;24.416;2023-09-07T13:20:09;0.80;0.80;0.00
20157;PMS5003;10239;56.820;24.416;2023-09-07T13:22:38;1.00;1.00;1.00
20157;PMS5003;10239;56.820;24.416;2023-09-07T13:25:09;1.00;1.00;0.00
20157;PMS5003;10239;56.820;24.416;2023-09-07T13:27:37;1.00;1.00;0.20
20157;PMS5003;10239;56.820;24.416;2023-09-07T13:30:06;3.00;1.60;0.80
20157;PMS5003;10239;56.820;24.416;2023-09-07T13:32:40;2.00;2.00;0.40
20157;PMS5003;10239;56.820;24.416;2023-09-07T13:35:11;1.40;1.00;0.20
20157;PMS5003;10239;56.820;24.416;2023-09-07T13:37:39;2.80;2.80;1.00
20157;PMS5003;10239;56.820;24.416;2023-09-07T13:40:08;0.00;0.00;0.00
20157;PMS5003;10239;56.820;24.416;2023-09-07T13:42:38;5.60;3.20;1.40
20157;PMS5003;10239;56.820;24.416;2023-09-07T13:45:10;3.00;2.00;1.00
20157;PMS5003;10239;56.820;24.416;2023-09-07T13:47:40;3.20;2.00;1.00
20157;PMS5003;10239;56.820;24.416;2023-09-07T13:50:12;3.60;2.80;1.00
20157;PMS5003;10239;56.820;24.416;2023-09-07T13:52:40;3.60;2.60;1.00
20157;PMS5003;10239;56.820;24.416;2023-09-07T13:55:08;3.00;3.00;1.40
20157;PMS5003;10239;56.820;24.416;2023-09-07T13:57:39;4.40;3.00;2.00
20157;PMS5003;10239;56.820;24.416;2023-09-07T14:00:12;3.80;2.40;0.80
20157;PMS5003;10239;56.820;24.416;2023-09-07T14:02:45;1.40;1.40;1.00
20157;PMS5003;10239;56.820;24.416;2023-09-07T14:05:14;5.00;2.60;1.40
20157;PMS5003;10239;56.820;24.416;2023-09-07T14:07:45;2.80;2.80;0.60
20157;PMS5003;10239;56.820;24.416;2023-09-07T14:10:24;6.80;5.00;2.00
20157;PMS5003;10239;56.820;24.416;2023-09-07T14:12:57;4.00;4.00;1.00
20157;PMS5003;10239;56.820;24.416;2023-09-07T14:15:26;3.60;3.60;1.00
20157;PMS5003;10239;56.820;24.416;2023-09-07T14:17:55;3.00;3.00;2.00
20157;PMS5003;10239;56.820;24.416;2023-09-07T14:20:29;3.80;3.00;1.00
20157;PMS5003;10239;56.820;24.416;2023-09-07T14:22:58;3.80;3.80;1.60
20157;PMS5003;10239;56.820;24.416;2023-09-07T14:25:27;3.60;3.60;2.00
20157;PMS5003;10239;56.820;24.416;2023-09-07T14:28:00;2.60;1.20;1.00
20157;PMS5003;10239;56.820;24.416;2023-09-07T14:30:27;5.60;4.40;1.80
20157;PMS5003;10239;56.820;24.416;2023-09-07T14:32:57;2.00;2.00;1.00
20157;PMS5003;10239;56.820;24.416;2023-09-07T14:35:29;3.00;3.00;2.00
20157;PMS5003;10239;56.820;24.416;2023-09-07T14:37:59;1.00;0.80;0.00
20157;PMS5003;10239;56.820;24.416;2023-09-07T14:40:28;1.00;1.00;0.00
20157;PMS5003;10239;56.820;24.416;2023-09-07T14:42:58;1.00;1.00;0.20
20157;PMS5003;10239;56.820;24.416;2023-09-07T14:45:27;1.00;1.00;0.40
20157;PMS5003;10239;56.820;24.416;2023-09-07T14:47:55;2.00;0.00;0.00
20157;PMS5003;10239;56.820;24.416;2023-09-07T14:50:24;1.40;0.40;0.00
20157;PMS5003;10239;56.820;24.416;2023-09-07T14:52:53;0.80;0.80;0.00
20157;PMS5003;10239;56.820;24.416;2023-09-07T14:55:22;1.60;1.60;1.00
20157;PMS5003;10239;56.820;24.416;2023-09-07T14:57:50;0.00;0.00;0.00
20157;PMS5003;10239;56.820;24.416;2023-09-07T15:00:20;1.80;1.80;0.60
20157;PMS5003;10239;56.820;24.416;2023-09-07T15:02:51;2.00;1.80;0.80
20157;PMS5003;10239;56.820;24.416;2023-09-07T15:05:20;0.00;0.00;0.00
20157;PMS5003;10239;56.820;24.416;2023-09-07T15:07:48;0.20;0.20;0.00
20157;PMS5003;10239;56.820;24.416;2023-09-07T15:10:15;0.00;0.00;0.00
20157;PMS5003;10239;56.820;24.416;2023-09-07T15:12:43;1.00;1.00;0.60
20157;PMS5003;10239;56.820;24.416;2023-09-07T15:15:11;3.00;0.20;0.00
20157;PMS5003;10239;56.820;24.416;2023-09-07T15:17:43;2.60;1.00;0.00
20157;PMS5003;10239;56.820;24.416;2023-09-07T15:20:14;3.60;2.20;0.60
20157;PMS5003;10239;56.820;24.416;2023-09-07T15:22:42;1.00;0.80;0.00
20157;PMS5003;10239;56.820;24.416;2023-09-07T15:25:12;0.80;0.80;0.00
20157;PMS5003;10239;56.820;24.416;2023-09-07T15:27:43;1.20;1.20;0.00
20157;PMS5003;10239;56.820;24.416;2023-09-07T15:30:14;3.40;0.80;0.00
20157;PMS5003;10239;56.820;24.416;2023-09-07T15:32:42;0.80;0.80;0.00
20157;PMS5003;10239;56.820;24.416;2023-09-07T15:35:10;0.80;0.80;0.20
20157;PMS5003;10239;56.820;24.416;2023-09-07T15:37:37;2.00;1.00;0.00
20157;PMS5003;10239;56.820;24.416;2023-09-07T15:40:07;0.20;0.20;0.00
20157;PMS5003;10239;56.820;24.416;2023-09-07T15:42:38;1.20;0.80;0.20
20157;PMS5003;10239;56.820;24.416;2023-09-07T15:45:05;0.20;0.20;0.00
20157;PMS5003;10239;56.820;24.416;2023-09-07T15:47:34;0.20;0.20;0.00
20157;PMS5003;10239;56.820;24.416;2023-09-07T15:50:02;0.00;0.00;0.00
20157;PMS5003;10239;56.820;24.416;2023-09-07T15:52:30;4.20;2.00;0.60
20157;PMS5003;10239;56.820;24.416;2023-09-07T15:54:58;1.20;1.00;0.00
20157;PMS5003;10239;56.820;24.416;2023-09-07T15:57:25;0.40;0.40;0.00
20157;PMS5003;10239;56.820;24.416;2023-09-07T15:59:53;0.60;0.60;0.00
20157;PMS5003;10239;56.820;24.416;2023-09-07T16:02:23;0.00;0.00;0.00
20157;PMS5003;10239;56.820;24.416;2023-09-07T16:04:50;0.60;0.60;0.00
20157;PMS5003;10239;56.820;24.416;2023-09-07T16:07:19;0.20;0.20;0.00
20157;PMS5003;10239;56.820;24.416;2023-09-07T16:09:47;2.20;1.00;0.00
20157;PMS5003;10239;56.820;24.416;2023-09-07T16:12:14;2.00;0.00;0.00
20157;PMS5003;10239;56.820;24.416;2023-09-07T16:14:42;0.50;0.50;0.00
20157;PMS5003;10239;56.820;24.416;2023-09-07T16:17:10;1.00;1.00;0.75
20157;PMS5003;10239;56.820;24.416;2023-09-07T16:19:37;1.50;0.00;0.00
20157;PMS5003;10239;56.820;24.416;2023-09-07T16:22:05;1.00;1.00;0.00
20157;PMS5003;10239;56.820;24.416;2023-09-07T16:24:35;0.75;0.75;0.00
20157;PMS5003;10239;56.820;24.416;2023-09-07T16:27:04;1.25;1.00;0.00
20157;PMS5003;10239;56.820;24.416;2023-09-07T16:29:31;1.75;1.00;0.00
20157;PMS5003;10239;56.820;24.416;2023-09-07T16:31:59;0.00;0.00;0.00
20157;PMS5003;10239;56.820;24.416;2023-09-07T16:34:27;1.75;1.75;1.00
20157;PMS5003;10239;56.820;24.416;2023-09-07T16:36:55;0.75;0.75;0.00
20157;PMS5003;10239;56.820;24.416;2023-09-07T16:39:23;1.75;1.00;0.75
20157;PMS5003;10239;56.820;24.416;2023-09-07T16:41:50;0.50;0.50;0.25
20157;PMS5003;10239;56.820;24.416;2023-09-07T16:44:18;1.00;1.00;0.00
20157;PMS5003;10239;56.820;24.416;2023-09-07T16:46:46;1.00;1.00;0.00
20157;PMS5003;10239;56.820;24.416;2023-09-07T16:49:14;0.25;0.25;0.00
20157;PMS5003;10239;56.820;24.416;2023-09-07T16:51:41;1.50;0.00;0.00
20157;PMS5003;10239;56.820;24.416;2023-09-07T16:54:11;0.00;0.00;0.00
20157;PMS5003;10239;56.820;24.416;2023-09-07T16:56:38;0.00;0.00;0.00
20157;PMS5003;10239;56.820;24.416;2023-09-07T16:59:07;0.00;0.00;0.00
20157;PMS5003;10239;56.820;24.416;2023-09-07T17:01:55;0.25;0.25;0.00
20157;PMS5003;10239;56.820;24.416;2023-09-07T17:04:23;0.75;0.75;0.00
20157;PMS5003;10239;56.820;24.416;2023-09-07T17:06:51;0.00;0.00;0.00
20157;PMS5003;10239;56.820;24.416;2023-09-07T17:09:31;0.00;0.00;0.00
20157;PMS5003;10239;56.820;24.416;2023-09-07T17:12:00;0.75;0.75;0.00
20157;PMS5003;10239;56.820;24.416;2023-09-07T17:14:28;1.75;1.75;0.25
20157;PMS5003;10239;56.820;24.416;2023-09-07T17:16:56;0.00;0.00;0.00
20157;PMS5003;10239;56.820;24.416;2023-09-07T17:19:24;0.25;0.25;0.00
20157;PMS5003;10239;56.820;24.416;2023-09-07T17:21:55;2.25;1.00;0.00
20157;PMS5003;10239;56.820;24.416;2023-09-07T17:24:23;0.75;0.75;0.00
20157;PMS5003;10239;56.820;24.416;2023-09-07T17:26:51;1.00;1.00;0.00
20157;PMS5003;10239;56.820;24.416;2023-09-07T17:29:22;2.25;1.00;0.00
20157;PMS5003;10239;56.820;24.416;2023-09-07T17:31:50;0.00;0.00;0.00
20157;PMS5003;10239;56.820;24.416;2023-09-07T17:34:18;2.00;2.00;1.00
20157;PMS5003;10239;56.820;24.416;2023-09-07T17:36:46;0.25;0.25;0.00
20157;PMS5003;10239;56.820;24.416;2023-09-07T17:39:13;1.50;1.50;0.50
20157;PMS5003;10239;56.820;24.416;2023-09-07T17:41:41;2.00;0.00;0.00
20157;PMS5003;10239;56.820;24.416;2023-09-07T17:44:09;0.00;0.00;0.00
20157;PMS5003;10239;56.820;24.416;2023-09-07T17:46:37;0.00;0.00;0.00
20157;PMS5003;10239;56.820;24.416;2023-09-07T17:49:05;0.25;0.25;0.00
20157;PMS5003;10239;56.820;24.416;2023-09-07T17:51:34;4.25;1.00;0.00
20157;PMS5003;10239;56.820;24.416;2023-09-07T17:54:01;0.00;0.00;0.00
20157;PMS5003;10239;56.820;24.416;2023-09-07T17:56:29;3.50;1.00;0.00
20157;PMS5003;10239;56.820;24.416;2023-09-07T17:58:56;1.00;1.00;0.00
20157;PMS5003;10239;56.820;24.416;2023-09-07T18:01:24;0.00;0.00;0.00
20157;PMS5003;10239;56.820;24.416;2023-09-07T18:03:52;0.00;0.00;0.00
20157;PMS5003;10239;56.820;24.416;2023-09-07T18:06:22;1.00;1.00;0.00
20157;PMS5003;10239;56.820;24.416;2023-09-07T18:08:50;0.00;0.00;0.00
20157;PMS5003;10239;56.820;24.416;2023-09-07T18:11:18;1.00;1.00;0.00
20157;PMS5003;10239;56.820;24.416;2023-09-07T18:13:46;2.00;0.50;0.00
20157;PMS5003;10239;56.820;24.416;2023-09-07T18:16:23;1.00;1.00;0.00
20157;PMS5003;10239;56.820;24.416;2023-09-07T18:18:50;0.50;0.50;0.00
20157;PMS5003;10239;56.820;24.416;2023-09-07T18:21:18;1.00;1.00;0.00
20157;PMS5003;10239;56.820;24.416;2023-09-07T18:23:46;2.00;0.75;0.00
20157;PMS5003;10239;56.820;24.416;2023-09-07T18:26:14;2.00;1.50;0.00
20157;PMS5003;10239;56.820;24.416;2023-09-07T18:28:42;1.50;0.50;0.00
20157;PMS5003;10239;56.820;24.416;2023-09-07T18:31:10;1.75;1.75;0.50
20157;PMS5003;10239;56.820;24.416;2023-09-07T18:33:38;1.00;1.00;0.00
20157;PMS5003;10239;56.820;24.416;2023-09-07T18:36:06;0.00;0.00;0.00
20157;PMS5003;10239;56.820;24.416;2023-09-07T18:38:35;0.50;0.50;0.00
20157;PMS5003;10239;56.820;24.416;2023-09-07T18:41:03;0.00;0.00;0.00
20157;PMS5003;10239;56.820;24.416;2023-09-07T18:43:31;0.00;0.00;0.00
20157;PMS5003;10239;56.820;24.416;2023-09-07T18:46:04;0.00;0.00;0.00
20157;PMS5003;10239;56.820;24.416;2023-09-07T18:48:36;1.00;1.00;0.50
20157;PMS5003;10239;56.820;24.416;2023-09-07T18:51:04;0.50;0.50;0.50
20157;PMS5003;10239;56.820;24.416;2023-09-07T18:53:34;2.50;1.00;0.00
20157;PMS5003;10239;56.820;24.416;2023-09-07T18:56:02;1.00;1.00;0.00
20157;PMS5003;10239;56.820;24.416;2023-09-07T18:58:31;1.75;1.75;0.00
20157;PMS5003;10239;56.820;24.416;2023-09-07T19:01:00;1.00;1.00;0.00
20157;PMS5003;10239;56.820;24.416;2023-09-07T19:03:38;1.50;1.00;0.00
20157;PMS5003;10239;56.820;24.416;2023-09-07T19:06:10;2.00;2.00;1.00
20157;PMS5003;10239;56.820;24.416;2023-09-07T19:08:38;2.00;2.00;1.00
20157;PMS5003;10239;56.820;24.416;2023-09-07T19:11:06;1.00;1.00;0.00
20157;PMS5003;10239;56.820;24.416;2023-09-07T19:13:34;3.00;1.50;1.00
20157;PMS5003;10239;56.820;24.416;2023-09-07T19:16:02;3.00;1.75;0.00
20157;PMS5003;10239;56.820;24.416;2023-09-07T19:18:30;1.75;1.75;0.00
20157;PMS5003;10239;56.820;24.416;2023-09-07T19:20:58;0.75;0.25;0.00
20157;PMS5003;10239;56.820;24.416;2023-09-07T19:23:46;1.75;1.00;0.00
20157;PMS5003;10239;56.820;24.416;2023-09-07T19:29:07;2.00;1.00;0.00
20157;PMS5003;10239;56.820;24.416;2023-09-07T19:31:37;1.00;1.00;0.00
20157;PMS5003;10239;56.820;24.416;2023-09-07T19:34:06;1.25;1.00;1.00
20157;PMS5003;10239;56.820;24.416;2023-09-07T19:36:35;1.00;1.00;0.00
20157;PMS5003;10239;56.820;24.416;2023-09-07T19:39:03;1.50;1.50;0.50
20157;PMS5003;10239;56.820;24.416;2023-09-07T19:41:32;0.00;0.00;0.00
20157;PMS5003;10239;56.820;24.416;2023-09-07T19:44:04;2.00;0.75;0.00
20157;PMS5003;10239;56.820;24.416;2023-09-07T19:46:32;2.00;0.75;0.00
20157;PMS5003;10239;56.820;24.416;2023-09-07T19:49:00;2.00;1.25;0.00
20157;PMS5003;10239;56.820;24.416;2023-09-07T19:51:28;0.00;0.00;0.00
20157;PMS5003;10239;56.820;24.416;2023-09-07T19:53:56;1.00;1.00;1.00
20157;PMS5003;10239;56.820;24.416;2023-09-07T19:56:24;1.00;1.00;0.00
20157;PMS5003;10239;56.820;24.416;2023-09-07T19:58:53;0.60;0.60;0.00